createdAt,value
2023-05-22T00:04:50.130Z,17
2023-05-22T00:10:06.379Z,15
2023-05-22T00:15:22.732Z,16
2023-05-22T00:20:39.553Z,17
2023-05-22T00:25:55.432Z,16
2023-05-22T00:31:11.795Z,15
2023-05-22T00:36:28.140Z,16
2023-05-22T00:41:44.515Z,16
2023-05-22T00:47:00.875Z,18
2023-05-22T00:52:17.226Z,16
2023-05-22T00:57:33.566Z,15
2023-05-22T01:02:50.005Z,18
2023-05-22T01:08:06.283Z,17
2023-05-22T01:13:22.649Z,16
2023-05-22T01:18:38.995Z,17
2023-05-22T01:23:55.387Z,17
2023-05-22T01:29:11.720Z,17
2023-05-22T01:34:28.087Z,16
2023-05-22T01:39:44.425Z,15
2023-05-22T01:45:00.795Z,14
2023-05-22T01:50:17.151Z,20
2023-05-22T01:55:33.514Z,15
2023-05-22T02:00:49.921Z,19
2023-05-22T02:06:06.232Z,17
2023-05-22T02:11:22.616Z,17
2023-05-22T02:16:38.968Z,18
2023-05-22T02:21:55.353Z,17
2023-05-22T02:27:11.686Z,18
2023-05-22T02:32:28.070Z,18
2023-05-22T02:37:44.399Z,17
2023-05-22T02:43:00.746Z,18
2023-05-22T02:48:17.148Z,18
2023-05-22T02:53:33.487Z,19
2023-05-22T02:58:49.836Z,18
2023-05-22T03:04:06.273Z,17
2023-05-22T03:09:22.551Z,19
2023-05-22T03:14:38.931Z,19
2023-05-22T03:19:55.481Z,20
2023-05-22T03:25:11.845Z,17
2023-05-22T03:30:28.246Z,17
2023-05-22T03:35:44.642Z,19
2023-05-22T03:41:00.975Z,21
2023-05-22T03:46:17.384Z,30
2023-05-22T03:51:33.705Z,19
2023-05-22T03:56:51.050Z,20
2023-05-22T04:02:07.428Z,19
2023-05-22T04:07:23.823Z,24
2023-05-22T04:12:40.188Z,23
2023-05-22T04:17:56.613Z,22
2023-05-22T04:23:12.926Z,24
2023-05-22T04:28:29.291Z,23
2023-05-22T04:33:45.683Z,24
2023-05-22T04:39:02.047Z,22
2023-05-22T04:44:18.425Z,23
2023-05-22T04:49:34.806Z,25
2023-05-22T04:54:51.186Z,21
2023-05-22T05:00:07.676Z,21
2023-05-22T05:05:24.042Z,19
2023-05-22T05:10:40.642Z,19
2023-05-22T05:15:56.798Z,21
2023-05-22T05:21:13.182Z,23
2023-05-22T05:26:29.549Z,23
2023-05-22T05:31:45.977Z,21
2023-05-22T05:37:02.272Z,19
2023-05-22T05:42:18.638Z,21
2023-05-22T05:47:35.110Z,20
2023-05-22T05:52:51.375Z,19
2023-05-22T05:58:07.718Z,20
2023-05-22T06:03:24.184Z,19
2023-05-22T06:08:40.429Z,16
2023-05-22T06:13:56.790Z,18
2023-05-22T06:19:13.225Z,22
2023-05-22T06:24:29.519Z,18
2023-05-22T06:29:45.602Z,20
2023-05-22T06:35:01.976Z,22
2023-05-22T06:40:18.344Z,22
2023-05-22T06:45:34.737Z,16
2023-05-22T06:50:52.066Z,26
2023-05-22T06:56:08.435Z,17
2023-05-22T07:01:24.874Z,20
2023-05-22T07:06:41.147Z,18
2023-05-22T07:11:57.498Z,18
2023-05-22T07:17:13.837Z,17
2023-05-22T07:22:31.211Z,19
2023-05-22T07:27:46.533Z,18
2023-05-22T07:33:02.936Z,17
2023-05-22T07:38:19.824Z,20
2023-05-22T07:43:36.187Z,18
2023-05-22T07:48:52.536Z,19
2023-05-22T07:54:08.876Z,17
2023-05-22T07:59:25.225Z,18
2023-05-22T08:04:41.663Z,18
2023-05-22T08:09:57.895Z,18
2023-05-22T08:15:14.269Z,19
2023-05-22T08:20:30.627Z,18
2023-05-22T08:25:46.929Z,16
2023-05-22T08:31:03.275Z,16
2023-05-22T08:36:19.568Z,14
2023-05-22T08:41:35.909Z,15
2023-05-22T08:46:52.253Z,15
2023-05-22T08:52:08.545Z,14
2023-05-22T08:57:24.807Z,16
2023-05-22T09:02:41.146Z,15
2023-05-22T09:08:02.738Z,14
2023-05-22T09:13:13.696Z,14
2023-05-22T09:18:29.957Z,14
2023-05-22T09:23:46.817Z,22
2023-05-22T09:29:03.102Z,15
2023-05-22T09:34:19.380Z,12
2023-05-22T09:39:35.633Z,12
2023-05-22T09:44:51.901Z,12
2023-05-22T09:50:08.902Z,15
2023-05-22T09:55:25.176Z,15
2023-05-22T10:00:41.658Z,13
2023-05-22T10:05:57.670Z,12
2023-05-22T10:11:13.944Z,12
2023-05-22T10:16:30.257Z,17
2023-05-22T10:21:46.431Z,14
2023-05-22T10:27:02.662Z,11
2023-05-22T10:32:18.934Z,12
2023-05-22T10:37:35.153Z,13
2023-05-22T10:42:51.453Z,12
2023-05-22T10:48:07.788Z,12
2023-05-22T10:53:23.972Z,10
2023-05-22T10:58:40.210Z,12
2023-05-22T11:03:56.512Z,11
2023-05-22T11:09:12.754Z,12
2023-05-22T11:14:29.008Z,10
2023-05-22T11:19:45.294Z,11
2023-05-22T11:25:01.526Z,10
2023-05-22T11:30:17.835Z,11
2023-05-22T11:35:34.043Z,11
2023-05-22T11:40:50.323Z,10
2023-05-22T11:46:06.609Z,10
2023-05-22T11:51:22.869Z,10
2023-05-22T11:56:39.132Z,9
2023-05-22T12:01:55.430Z,9
2023-05-22T12:07:11.712Z,9
2023-05-22T12:12:27.997Z,8
2023-05-22T12:17:44.337Z,10
2023-05-22T12:23:00.569Z,10
2023-05-22T12:28:16.855Z,10
2023-05-22T12:33:33.152Z,10
2023-05-22T12:38:49.428Z,9
2023-05-22T12:44:05.703Z,9
2023-05-22T12:49:21.962Z,10
2023-05-22T12:54:38.284Z,10
2023-05-22T12:59:54.553Z,8
2023-05-22T13:05:10.879Z,8
2023-05-22T13:10:27.132Z,8
2023-05-22T13:15:43.422Z,8
2023-05-22T13:20:59.711Z,6
2023-05-22T13:26:15.972Z,7
2023-05-22T13:31:32.260Z,8
2023-05-22T13:36:48.535Z,7
2023-05-22T13:42:04.820Z,9
2023-05-22T13:47:21.249Z,8
2023-05-22T13:52:37.414Z,8
2023-05-22T13:57:53.701Z,8
2023-05-22T14:03:10.038Z,8
2023-05-22T14:08:26.269Z,8
2023-05-22T14:13:42.574Z,8
2023-05-22T14:18:58.868Z,6
2023-05-22T14:24:15.121Z,9
2023-05-22T14:29:31.396Z,9
2023-05-22T14:34:47.691Z,9
2023-05-22T14:40:03.971Z,8
2023-05-22T14:45:20.268Z,8
2023-05-22T14:50:36.547Z,9
2023-05-22T14:55:52.836Z,9
2023-05-22T15:01:09.142Z,9
2023-05-22T15:06:25.434Z,10
2023-05-22T15:11:41.724Z,9
2023-05-22T15:16:58.003Z,8
2023-05-22T15:22:19.270Z,9
2023-05-22T15:27:30.590Z,9
2023-05-22T15:32:46.905Z,9
2023-05-22T15:38:03.209Z,8
2023-05-22T15:43:19.505Z,9
2023-05-22T15:48:35.762Z,9
2023-05-22T15:53:52.084Z,10
2023-05-22T15:59:08.358Z,10
2023-05-22T16:04:24.673Z,8
2023-05-22T16:09:40.964Z,12
2023-05-22T16:15:00.216Z,9
2023-05-22T16:20:13.580Z,9
2023-05-22T16:25:29.871Z,11
2023-05-22T16:30:46.181Z,9
2023-05-22T16:36:02.463Z,9
2023-05-22T16:41:18.786Z,9
2023-05-22T16:46:35.140Z,18
2023-05-22T16:51:51.414Z,13
2023-05-22T16:57:07.724Z,11
2023-05-22T17:02:24.150Z,9
2023-05-22T17:07:40.343Z,10
2023-05-22T17:12:56.699Z,11
2023-05-22T17:18:13.021Z,12
2023-05-22T17:23:29.295Z,12
2023-05-22T17:28:45.629Z,9
2023-05-22T17:34:01.930Z,10
2023-05-22T17:39:18.235Z,11
2023-05-22T17:44:34.569Z,11
2023-05-22T17:49:50.913Z,13
2023-05-22T17:55:07.254Z,12
2023-05-22T18:00:23.580Z,12
2023-05-22T18:05:39.892Z,11
2023-05-22T18:10:56.234Z,11
2023-05-22T18:16:12.626Z,12
2023-05-22T18:21:28.933Z,13
2023-05-22T18:26:45.253Z,13
2023-05-22T18:32:01.629Z,11
2023-05-22T18:37:17.909Z,13
2023-05-22T18:42:34.295Z,12
2023-05-22T18:47:50.700Z,12
2023-05-22T18:53:06.974Z,14
2023-05-22T18:58:23.344Z,14
2023-05-22T19:03:39.899Z,15
2023-05-22T19:08:56.051Z,16
2023-05-22T19:14:12.409Z,15
2023-05-22T19:19:28.858Z,13
2023-05-22T19:24:45.124Z,16
2023-05-22T19:30:01.462Z,14
2023-05-22T19:35:17.847Z,15
2023-05-22T19:40:34.238Z,13
2023-05-22T19:45:50.561Z,14
2023-05-22T19:51:06.996Z,15
2023-05-22T19:56:23.263Z,13
2023-05-22T20:01:39.646Z,15
2023-05-22T20:06:55.962Z,15
2023-05-22T20:12:12.896Z,15
2023-05-22T20:17:29.259Z,17
2023-05-22T20:22:46.198Z,18
2023-05-22T20:28:02.526Z,13
2023-05-22T20:33:18.777Z,16
2023-05-22T20:38:35.048Z,16
2023-05-22T20:43:51.434Z,15
2023-05-22T20:49:07.778Z,14
2023-05-22T20:54:24.139Z,16
2023-05-22T20:59:40.478Z,13
2023-05-22T21:04:56.858Z,16
2023-05-22T21:10:13.215Z,17
2023-05-22T21:15:29.569Z,17
2023-05-22T21:20:45.949Z,16
2023-05-22T21:26:02.294Z,19
2023-05-22T21:31:18.734Z,17
2023-05-22T21:36:35.032Z,16
2023-05-22T21:41:51.426Z,17
2023-05-22T21:47:07.760Z,17
2023-05-22T21:52:24.102Z,16
2023-05-22T21:57:40.472Z,18
2023-05-22T22:02:56.950Z,17
2023-05-22T22:08:13.208Z,16
2023-05-22T22:13:29.580Z,15
2023-05-22T22:18:45.931Z,16
2023-05-22T22:24:02.290Z,17
2023-05-22T22:29:18.627Z,19
2023-05-22T22:34:35.002Z,17
2023-05-22T22:39:51.358Z,18
2023-05-22T22:45:07.730Z,21
2023-05-22T22:50:24.101Z,18
2023-05-22T22:55:40.747Z,20
2023-05-22T23:00:56.867Z,20
2023-05-22T23:06:13.228Z,19
2023-05-22T23:11:29.629Z,20
2023-05-22T23:16:45.992Z,19
2023-05-22T23:22:02.118Z,20
2023-05-22T23:27:18.475Z,18
2023-05-22T23:32:34.878Z,19
2023-05-22T23:37:51.216Z,18
2023-05-22T23:43:07.587Z,18
2023-05-22T23:48:23.946Z,19
2023-05-22T23:53:40.327Z,18
2023-05-22T23:58:56.698Z,18
